createdAt,value
2022-09-17T00:00:55.156Z,100299.84
2022-09-17T00:03:23.274Z,100301.19
2022-09-17T00:05:49.821Z,100307.22
2022-09-17T00:08:16.422Z,100301.97
2022-09-17T00:10:44.359Z,100309.19
2022-09-17T00:13:12.253Z,100306.41
2022-09-17T00:15:43.723Z,100310.75
2022-09-17T00:18:10.985Z,100312.41
2022-09-17T00:20:42.770Z,100305.88
2022-09-17T00:23:09.723Z,100309.00
2022-09-17T00:25:44.795Z,100311.72
2022-09-17T00:28:13.432Z,100320.38
2022-09-17T00:30:45.807Z,100314.09
2022-09-17T00:33:17.457Z,100323.06
2022-09-17T00:35:44.725Z,100320.84
2022-09-17T00:38:11.718Z,100326.97
2022-09-17T00:40:39.054Z,100319.00
2022-09-17T00:43:11.790Z,100322.03
2022-09-17T00:45:40.067Z,100316.63
2022-09-17T00:48:07.232Z,100325.56
2022-09-17T00:50:36.652Z,100332.59
2022-09-17T00:53:10.951Z,100328.06
2022-09-17T00:55:59.448Z,100330.31
2022-09-17T00:58:27.229Z,100336.34
2022-09-17T01:00:54.954Z,100331.97
2022-09-17T01:03:22.120Z,100331.13
2022-09-17T01:06:01.663Z,100335.00
2022-09-17T01:08:43.882Z,100325.72
2022-09-17T01:11:48.031Z,100335.56
2022-09-17T01:14:40.107Z,100329.72
2022-09-17T01:17:24.109Z,100331.84
2022-09-17T01:20:12.345Z,100334.59
2022-09-17T01:22:58.202Z,100338.00
2022-09-17T01:25:38.281Z,100339.66
2022-09-17T01:28:23.614Z,100331.44
2022-09-17T01:31:05.005Z,100329.31
2022-09-17T01:34:09.137Z,100329.25
2022-09-17T01:36:47.936Z,100330.25
2022-09-17T01:39:42.526Z,100332.72
2022-09-17T01:42:49.750Z,100334.53
2022-09-17T01:45:25.753Z,100333.88
2022-09-17T01:47:56.919Z,100330.75
2022-09-17T01:50:32.486Z,100334.25
2022-09-17T01:53:00.059Z,100337.63
2022-09-17T01:55:33.597Z,100332.22
2022-09-17T01:58:06.717Z,100345.59
2022-09-17T02:00:33.955Z,100342.13
2022-09-17T02:03:07.650Z,100348.66
2022-09-17T02:05:43.112Z,100342.66
2022-09-17T02:08:14.451Z,100331.16
2022-09-17T02:10:46.783Z,100338.59
2022-09-17T02:13:31.282Z,100345.72
2022-09-17T02:16:04.644Z,100346.00
2022-09-17T02:18:41.270Z,100348.97
2022-09-17T02:21:21.867Z,100351.19
2022-09-17T02:24:09.705Z,100342.44
2022-09-17T02:26:43.509Z,100359.44
2022-09-17T02:29:18.357Z,100363.50
2022-09-17T02:31:44.997Z,100356.16
2022-09-17T02:34:11.594Z,100367.75
2022-09-17T02:36:38.242Z,100365.56
2022-09-17T02:39:04.793Z,100364.75
2022-09-17T02:42:05.103Z,100365.69
2022-09-17T02:44:52.706Z,100364.81
2022-09-17T02:47:28.360Z,100359.28
2022-09-17T02:50:10.156Z,100363.50
2022-09-17T02:53:04.637Z,100358.91
2022-09-17T02:56:00.573Z,100359.97
2022-09-17T02:58:34.183Z,100354.78
2022-09-17T03:01:07.987Z,100348.28
2022-09-17T03:03:43.359Z,100353.19
2022-09-17T03:06:10.129Z,100348.72
2022-09-17T03:08:40.175Z,100356.34
2022-09-17T03:11:09.290Z,100363.03
2022-09-17T03:13:36.521Z,100351.19
2022-09-17T03:16:07.112Z,100356.66
2022-09-17T03:18:34.067Z,100363.47
2022-09-17T03:21:00.629Z,100347.13
2022-09-17T03:23:28.101Z,100352.16
2022-09-17T03:25:55.408Z,100358.00
2022-09-17T03:28:22.785Z,100360.97
2022-09-17T03:30:49.283Z,100363.63
2022-09-17T03:33:15.790Z,100363.44
2022-09-17T03:35:46.065Z,100363.38
2022-09-17T03:38:13.404Z,100368.84
2022-09-17T03:40:40.695Z,100364.03
2022-09-17T03:43:07.417Z,100367.91
2022-09-17T03:45:34.000Z,100371.44
2022-09-17T03:48:00.774Z,100367.00
2022-09-17T03:50:27.319Z,100369.28
2022-09-17T03:52:54.013Z,100379.56
2022-09-17T03:55:20.645Z,100374.81
2022-09-17T03:57:47.137Z,100389.00
2022-09-17T04:00:17.454Z,100380.31
2022-09-17T04:02:44.397Z,100378.94
2022-09-17T04:05:11.301Z,100375.47
2022-09-17T04:07:39.963Z,100368.28
2022-09-17T04:10:07.202Z,100382.66
2022-09-17T04:12:33.745Z,100387.88
2022-09-17T04:15:00.235Z,100385.88
2022-09-17T04:17:27.898Z,100377.59
2022-09-17T04:19:55.262Z,100374.31
2022-09-17T04:22:21.849Z,100385.50
2022-09-17T04:24:48.371Z,100387.97
2022-09-17T04:27:14.971Z,100389.53
2022-09-17T04:29:41.512Z,100384.56
2022-09-17T04:32:08.162Z,100389.53
2022-09-17T04:34:34.900Z,100387.69
2022-09-17T04:37:01.448Z,100389.75
2022-09-17T04:39:27.908Z,100393.47
2022-09-17T04:41:55.207Z,100383.47
2022-09-17T04:44:22.861Z,100400.66
2022-09-17T04:46:49.658Z,100393.31
2022-09-17T04:49:16.171Z,100386.53
2022-09-17T04:51:42.716Z,100389.50
2022-09-17T04:54:09.525Z,100391.31
2022-09-17T04:56:35.986Z,100403.38
2022-09-17T04:59:02.583Z,100388.69
2022-09-17T05:01:29.195Z,100404.53
2022-09-17T05:03:55.777Z,100397.13
2022-09-17T05:06:22.230Z,100399.50
2022-09-17T05:08:48.842Z,100401.09
2022-09-17T05:11:15.312Z,100395.56
2022-09-17T05:13:41.846Z,100404.28
2022-09-17T05:16:08.386Z,100401.00
2022-09-17T05:18:34.917Z,100393.47
2022-09-17T05:21:01.444Z,100395.97
2022-09-17T05:23:30.073Z,100401.72
2022-09-17T05:26:00.695Z,100392.47
2022-09-17T05:28:28.093Z,100404.88
2022-09-17T05:30:55.390Z,100400.75
2022-09-17T05:33:22.015Z,100404.47
2022-09-17T05:35:48.702Z,100396.78
2022-09-17T05:38:18.951Z,100401.34
2022-09-17T05:40:46.399Z,100391.41
2022-09-17T05:43:13.060Z,100396.34
2022-09-17T05:45:39.594Z,100395.97
2022-09-17T05:48:07.957Z,100401.41
2022-09-17T05:50:34.482Z,100414.97
2022-09-17T05:53:11.808Z,100407.94
2022-09-17T05:55:39.117Z,100408.03
2022-09-17T05:58:13.855Z,100413.41
2022-09-17T06:00:41.830Z,100421.59
2022-09-17T06:03:12.565Z,100426.19
2022-09-17T06:05:39.459Z,100423.38
2022-09-17T06:08:06.351Z,100419.31
2022-09-17T06:10:32.889Z,100426.19
2022-09-17T06:13:00.243Z,100428.88
2022-09-17T06:15:28.050Z,100430.19
2022-09-17T06:17:54.937Z,100441.25
2022-09-17T06:20:21.886Z,100441.94
2022-09-17T06:22:48.447Z,100434.97
2022-09-17T06:25:15.253Z,100434.06
2022-09-17T06:27:41.896Z,100445.91
2022-09-17T06:30:08.741Z,100439.88
2022-09-17T06:32:35.267Z,100430.88
2022-09-17T06:35:02.007Z,100437.06
2022-09-17T06:37:33.130Z,100445.50
2022-09-17T06:40:00.328Z,100461.38
2022-09-17T06:42:28.665Z,100451.09
2022-09-17T06:44:55.199Z,100451.09
2022-09-17T06:47:24.887Z,100450.84
2022-09-17T06:49:51.929Z,100448.06
2022-09-17T06:52:18.586Z,100448.22
2022-09-17T06:54:45.144Z,100449.66
2022-09-17T06:57:11.613Z,100451.66
2022-09-17T06:59:38.122Z,100452.41
2022-09-17T07:02:04.744Z,100454.94
2022-09-17T07:04:31.314Z,100464.22
2022-09-17T07:06:57.775Z,100466.72
2022-09-17T07:09:24.409Z,100465.19
2022-09-17T07:11:51.046Z,100474.59
2022-09-17T07:14:19.249Z,100480.97
2022-09-17T07:16:45.730Z,100475.44
2022-09-17T07:19:14.813Z,100472.97
2022-09-17T07:21:41.557Z,100481.59
2022-09-17T07:24:08.146Z,100472.50
2022-09-17T07:26:34.919Z,100469.34
2022-09-17T07:29:01.748Z,100478.03
2022-09-17T07:31:28.263Z,100471.47
2022-09-17T07:33:54.758Z,100473.63
2022-09-17T07:36:21.275Z,100470.78
2022-09-17T07:38:47.748Z,100472.69
2022-09-17T07:41:16.756Z,100465.38
2022-09-17T07:43:44.027Z,100460.91
2022-09-17T07:46:18.296Z,100453.66
2022-09-17T07:48:46.081Z,100457.91
2022-09-17T07:51:21.836Z,100461.91
2022-09-17T07:53:51.710Z,100454.53
2022-09-17T07:56:18.589Z,100450.00
2022-09-17T07:58:45.141Z,100458.78
2022-09-17T08:01:13.856Z,100447.81
2022-09-17T08:03:40.372Z,100453.94
2022-09-17T08:06:09.043Z,100450.47
2022-09-17T08:08:39.950Z,100451.09
2022-09-17T08:11:32.392Z,100440.75
2022-09-17T08:14:04.771Z,100438.63
2022-09-17T08:16:31.638Z,100439.25
2022-09-17T08:18:58.515Z,100438.63
2022-09-17T08:21:25.538Z,100431.78
2022-09-17T08:23:52.294Z,100440.69
2022-09-17T08:26:22.854Z,100441.09
2022-09-17T08:28:54.423Z,100450.94
2022-09-17T08:31:23.175Z,100441.72
2022-09-17T08:33:50.541Z,100440.97
2022-09-17T08:36:19.229Z,100427.59
2022-09-17T08:38:46.270Z,100431.44
2022-09-17T08:41:43.746Z,100432.28
2022-09-17T08:44:24.907Z,100446.78
2022-09-17T08:46:59.686Z,100442.25
2022-09-17T08:49:36.860Z,100446.13
2022-09-17T08:52:24.529Z,100451.31
2022-09-17T08:55:11.285Z,100442.44
2022-09-17T08:58:01.565Z,100445.63
2022-09-17T09:00:33.606Z,100441.78
2022-09-17T09:03:20.386Z,100449.44
2022-09-17T09:05:53.616Z,100457.03
2022-09-17T09:08:30.612Z,100446.75
2022-09-17T09:11:00.440Z,100440.69
2022-09-17T09:13:32.879Z,100453.25
2022-09-17T09:16:23.129Z,100438.50
2022-09-17T09:19:01.096Z,100446.34
2022-09-17T09:21:30.015Z,100441.97
2022-09-17T09:24:00.573Z,100441.34
2022-09-17T09:26:44.532Z,100454.84
2022-09-17T09:29:17.140Z,100449.09
2022-09-17T09:32:20.254Z,100447.09
2022-09-17T09:34:49.442Z,100459.19
2022-09-17T09:37:25.284Z,100442.44
2022-09-17T09:39:54.057Z,100442.22
2022-09-17T09:42:32.412Z,100438.38
2022-09-17T09:45:05.477Z,100451.91
2022-09-17T09:47:35.183Z,100435.63
2022-09-17T09:50:23.646Z,100443.59
2022-09-17T09:53:28.006Z,100445.19
2022-09-17T09:56:23.451Z,100429.50
2022-09-17T09:58:49.997Z,100434.44
2022-09-17T10:01:22.256Z,100437.56
2022-09-17T10:03:52.028Z,100430.19
2022-09-17T10:06:22.108Z,100419.84
2022-09-17T10:08:54.780Z,100421.75
2022-09-17T10:11:29.877Z,100428.19
2022-09-17T10:14:16.606Z,100424.13
2022-09-17T10:16:43.080Z,100421.97
2022-09-17T10:19:09.493Z,100406.63
2022-09-17T10:21:41.927Z,100419.78
2022-09-17T10:24:28.894Z,100414.88
2022-09-17T10:27:17.434Z,100410.47
2022-09-17T10:29:51.385Z,100416.22
2022-09-17T10:32:21.198Z,100415.59
2022-09-17T10:35:04.533Z,100406.59
2022-09-17T10:37:43.375Z,100406.03
2022-09-17T10:40:19.241Z,100396.63
2022-09-17T10:42:51.392Z,100398.88
2022-09-17T10:45:27.007Z,100396.94
2022-09-17T10:47:55.158Z,100388.19
2022-09-17T10:50:27.590Z,100382.94
2022-09-17T10:52:57.172Z,100393.38
2022-09-17T10:55:26.970Z,100381.28
2022-09-17T10:58:24.445Z,100376.97
2022-09-17T11:01:09.643Z,100383.50
2022-09-17T11:03:54.449Z,100383.50
2022-09-17T11:06:51.529Z,100364.88
2022-09-17T11:09:27.033Z,100365.16
2022-09-17T11:12:36.769Z,100362.72
2022-09-17T11:15:25.799Z,100360.50
2022-09-17T11:18:17.094Z,100362.16
2022-09-17T11:20:43.620Z,100348.19
2022-09-17T11:23:47.453Z,100357.25
2022-09-17T11:26:34.173Z,100358.63
2022-09-17T11:29:22.693Z,100362.19
2022-09-17T11:32:14.915Z,100369.84
2022-09-17T11:34:57.834Z,100358.84
2022-09-17T11:37:35.978Z,100363.84
2022-09-17T11:40:30.360Z,100363.25
2022-09-17T11:43:02.812Z,100363.00
2022-09-17T11:45:40.097Z,100366.59
2022-09-17T11:48:18.323Z,100366.03
2022-09-17T11:50:50.553Z,100360.50
2022-09-17T11:53:23.657Z,100364.34
2022-09-17T11:56:00.046Z,100357.50
2022-09-17T11:59:09.162Z,100356.41
2022-09-17T12:01:42.019Z,100353.94
2022-09-17T12:04:32.833Z,100356.97
2022-09-17T12:07:14.085Z,100352.84
2022-09-17T12:09:44.265Z,100351.22
2022-09-17T12:12:44.741Z,100347.38
2022-09-17T12:15:18.416Z,100338.06
2022-09-17T12:18:03.839Z,100341.88
2022-09-17T12:20:42.694Z,100333.94
2022-09-17T12:23:16.754Z,100334.72
2022-09-17T12:26:25.628Z,100325.88
2022-09-17T12:29:03.281Z,100324.50
2022-09-17T12:31:37.970Z,100327.53
2022-09-17T12:34:18.594Z,100331.81
2022-09-17T12:37:18.831Z,100331.06
2022-09-17T12:39:48.251Z,100342.59
2022-09-17T12:42:42.674Z,100339.84
2022-09-17T12:45:09.136Z,100335.75
2022-09-17T12:47:54.044Z,100331.38
2022-09-17T12:50:44.558Z,100339.91
2022-09-17T12:53:50.107Z,100340.22
2022-09-17T12:56:30.252Z,100347.38
2022-09-17T12:59:16.009Z,100340.25
2022-09-17T13:01:55.042Z,100334.75
2022-09-17T13:05:03.058Z,100336.13
2022-09-17T13:08:02.227Z,100336.13
2022-09-17T13:10:47.588Z,100339.94
2022-09-17T13:13:28.901Z,100338.50
2022-09-17T13:16:05.032Z,100336.28
2022-09-17T13:18:53.909Z,100337.13
2022-09-17T13:21:47.062Z,100326.09
2022-09-17T13:24:22.741Z,100319.75
2022-09-17T13:26:49.470Z,100316.97
2022-09-17T13:29:44.757Z,100309.63
2022-09-17T13:32:33.403Z,100334.06
2022-09-17T13:35:09.646Z,100327.53
2022-09-17T13:37:40.008Z,100331.91
2022-09-17T13:40:22.337Z,100335.75
2022-09-17T13:42:55.508Z,100345.38
2022-09-17T13:45:24.041Z,100353.34
2022-09-17T13:48:00.643Z,100344.56
2022-09-17T13:50:37.908Z,100352.75
2022-09-17T13:53:16.243Z,100358.81
2022-09-17T13:55:48.150Z,100360.22
2022-09-17T13:58:23.660Z,100354.72
2022-09-17T14:01:04.663Z,100355.00
2022-09-17T14:03:31.313Z,100352.84
2022-09-17T14:06:19.500Z,100352.56
2022-09-17T14:08:46.846Z,100356.13
2022-09-17T14:11:22.716Z,100359.16
2022-09-17T14:13:55.274Z,100379.22
2022-09-17T14:16:25.771Z,100393.97
2022-09-17T14:18:59.392Z,100415.00
2022-09-17T14:21:30.015Z,100413.66
2022-09-17T14:23:59.546Z,100428.47
2022-09-17T14:26:42.115Z,100410.03
2022-09-17T14:29:30.213Z,100406.91
2022-09-17T14:31:57.905Z,100404.31
2022-09-17T14:34:26.579Z,100407.25
2022-09-17T14:36:55.095Z,100409.06
2022-09-17T14:39:35.230Z,100410.00
2022-09-17T14:42:04.456Z,100404.59
2022-09-17T14:44:34.371Z,100404.72
2022-09-17T14:47:06.598Z,100403.38
2022-09-17T14:49:38.437Z,100399.84
2022-09-17T14:52:32.240Z,100403.91
2022-09-17T14:55:16.793Z,100412.69
2022-09-17T14:57:46.004Z,100415.09
2022-09-17T15:00:23.108Z,100403.22
2022-09-17T15:02:59.662Z,100410.63
2022-09-17T15:05:28.248Z,100407.81
2022-09-17T15:08:09.906Z,100412.16
2022-09-17T15:10:49.623Z,100405.94
2022-09-17T15:13:20.889Z,100412.63
2022-09-17T15:15:57.629Z,100407.88
2022-09-17T15:18:41.335Z,100416.00
2022-09-17T15:21:36.985Z,100411.06
2022-09-17T15:24:36.658Z,100411.00
2022-09-17T15:27:18.520Z,100416.28
2022-09-17T15:29:50.228Z,100417.81
2022-09-17T15:32:16.797Z,100414.16
2022-09-17T15:34:43.346Z,100412.16
2022-09-17T15:37:21.131Z,100408.03
2022-09-17T15:39:51.015Z,100424.44
2022-09-17T15:42:20.616Z,100426.56
2022-09-17T15:44:47.399Z,100429.75
2022-09-17T15:47:51.710Z,100426.78
2022-09-17T15:50:27.121Z,100423.28
2022-09-17T15:53:08.797Z,100434.78
2022-09-17T15:55:48.372Z,100436.38
2022-09-17T15:58:29.938Z,100442.81
2022-09-17T16:01:12.049Z,100443.63
2022-09-17T16:03:38.484Z,100441.94
2022-09-17T16:06:25.523Z,100443.09
2022-09-17T16:08:56.918Z,100451.28
2022-09-17T16:11:33.071Z,100452.69
2022-09-17T16:14:01.177Z,100468.38
2022-09-17T16:16:36.179Z,100463.19
2022-09-17T16:19:06.755Z,100465.59
2022-09-17T16:21:33.346Z,100463.94
2022-09-17T16:24:00.246Z,100475.19
2022-09-17T16:26:33.914Z,100466.34
2022-09-17T16:29:15.499Z,100478.59
2022-09-17T16:31:42.183Z,100487.84
2022-09-17T16:34:08.721Z,100483.63
2022-09-17T16:36:35.180Z,100489.78
2022-09-17T16:39:01.734Z,100484.00
2022-09-17T16:41:28.540Z,100482.22
2022-09-17T16:43:55.165Z,100479.91
2022-09-17T16:46:21.874Z,100482.09
2022-09-17T16:48:51.744Z,100480.69
2022-09-17T16:51:18.552Z,100493.69
2022-09-17T16:53:45.807Z,100480.75
2022-09-17T16:56:14.964Z,100485.44
2022-09-17T16:58:41.857Z,100490.22
2022-09-17T17:01:10.321Z,100493.53
2022-09-17T17:03:36.943Z,100494.53
2022-09-17T17:06:04.286Z,100501.06
2022-09-17T17:08:34.370Z,100499.97
2022-09-17T17:11:01.324Z,100498.84
2022-09-17T17:13:28.159Z,100503.69
2022-09-17T17:15:55.087Z,100509.47
2022-09-17T17:18:22.053Z,100506.75
2022-09-17T17:20:49.105Z,100506.94
2022-09-17T17:23:16.348Z,100509.75
2022-09-17T17:25:43.012Z,100507.09
2022-09-17T17:28:09.728Z,100509.56
2022-09-17T17:30:36.426Z,100509.06
2022-09-17T17:33:04.155Z,100511.78
2022-09-17T17:35:31.215Z,100512.06
2022-09-17T17:37:57.778Z,100512.06
2022-09-17T17:40:24.341Z,100512.56
2022-09-17T17:42:54.825Z,100515.84
2022-09-17T17:45:22.069Z,100518.19
2022-09-17T17:47:48.632Z,100523.22
2022-09-17T17:50:16.077Z,100525.59
2022-09-17T17:52:47.884Z,100522.63
2022-09-17T17:55:15.972Z,100524.72
2022-09-17T17:57:42.488Z,100519.47
2022-09-17T18:00:11.764Z,100524.72
2022-09-17T18:02:38.366Z,100524.78
2022-09-17T18:05:05.405Z,100521.81
2022-09-17T18:07:31.942Z,100531.31
2022-09-17T18:09:58.550Z,100531.56
2022-09-17T18:12:27.061Z,100540.56
2022-09-17T18:14:53.939Z,100535.44
2022-09-17T18:17:20.738Z,100541.81
2022-09-17T18:19:55.494Z,100545.03
2022-09-17T18:22:22.378Z,100549.78
2022-09-17T18:24:48.903Z,100553.47
2022-09-17T18:27:15.535Z,100560.03
2022-09-17T18:29:42.557Z,100553.72
2022-09-17T18:32:09.445Z,100564.63
2022-09-17T18:34:37.426Z,100563.47
2022-09-17T18:37:14.671Z,100563.22
2022-09-17T18:39:57.941Z,100563.50
2022-09-17T18:42:34.027Z,100566.56
2022-09-17T18:45:01.189Z,100565.31
2022-09-17T18:47:28.131Z,100567.56
2022-09-17T18:49:55.177Z,100583.19
2022-09-17T18:52:21.947Z,100587.00
2022-09-17T18:54:48.964Z,100592.13
2022-09-17T18:57:15.923Z,100595.59
2022-09-17T18:59:42.718Z,100602.97
2022-09-17T19:02:13.169Z,100595.75
2022-09-17T19:04:39.912Z,100600.91
2022-09-17T19:07:06.700Z,100600.06
2022-09-17T19:09:33.943Z,100608.69
2022-09-17T19:12:00.788Z,100605.44
2022-09-17T19:14:27.660Z,100616.44
2022-09-17T19:16:55.443Z,100615.94
2022-09-17T19:19:22.506Z,100617.59
2022-09-17T19:21:50.839Z,100613.88
2022-09-17T19:24:18.629Z,100625.63
2022-09-17T19:26:50.674Z,100622.31
2022-09-17T19:29:17.943Z,100625.34
2022-09-17T19:31:44.624Z,100632.13
2022-09-17T19:34:11.745Z,100633.38
2022-09-17T19:36:38.286Z,100629.72
2022-09-17T19:39:04.883Z,100633.97
2022-09-17T19:41:36.060Z,100639.19
2022-09-17T19:44:03.706Z,100637.13
2022-09-17T19:46:31.668Z,100635.47
2022-09-17T19:48:58.870Z,100639.59
2022-09-17T19:51:28.360Z,100643.31
2022-09-17T19:53:55.086Z,100643.81
2022-09-17T19:56:27.115Z,100641.63
2022-09-17T19:58:53.764Z,100641.91
2022-09-17T20:01:20.477Z,100640.75
2022-09-17T20:03:51.063Z,100643.22
2022-09-17T20:06:20.649Z,100643.22
2022-09-17T20:08:49.653Z,100642.25
2022-09-17T20:11:17.467Z,100646.47
2022-09-17T20:13:44.168Z,100644.47
2022-09-17T20:16:15.230Z,100654.56
2022-09-17T20:18:43.829Z,100646.38
2022-09-17T20:21:16.715Z,100650.34
2022-09-17T20:23:43.970Z,100663.41
2022-09-17T20:26:11.982Z,100664.16
2022-09-17T20:28:38.952Z,100665.38
2022-09-17T20:31:08.595Z,100663.69
2022-09-17T20:33:35.327Z,100670.75
2022-09-17T20:36:04.483Z,100674.56
2022-09-17T20:41:19.427Z,100670.66
2022-09-17T20:43:51.606Z,100674.97
2022-09-17T20:46:23.662Z,100684.22
2022-09-17T20:48:52.720Z,100684.59
2022-09-17T20:51:24.425Z,100679.00
2022-09-17T20:53:51.283Z,100678.72
2022-09-17T20:56:23.831Z,100688.47
2022-09-17T20:59:01.258Z,100693.56
2022-09-17T21:01:36.824Z,100686.81
2022-09-17T21:04:05.189Z,100681.91
2022-09-17T21:06:34.594Z,100680.44
2022-09-17T21:09:01.255Z,100687.47
2022-09-17T21:11:29.961Z,100681.25
2022-09-17T21:13:57.375Z,100673.44
2022-09-17T21:16:25.058Z,100673.16
2022-09-17T21:18:57.222Z,100689.63
2022-09-17T21:21:24.199Z,100682.84
2022-09-17T21:23:51.159Z,100692.91
2022-09-17T21:26:20.456Z,100686.00
2022-09-17T21:28:48.767Z,100694.59
2022-09-17T21:31:18.861Z,100689.63
2022-09-17T21:33:47.237Z,100687.38
2022-09-17T21:36:17.064Z,100687.72
2022-09-17T21:38:44.082Z,100697.31
2022-09-17T21:41:12.946Z,100701.94
2022-09-17T21:43:40.605Z,100694.00
2022-09-17T21:46:08.390Z,100698.19
2022-09-17T21:48:37.446Z,100697.25
2022-09-17T21:51:06.499Z,100694.59
2022-09-17T21:53:33.842Z,100696.50
2022-09-17T21:56:03.615Z,100699.00
2022-09-17T21:58:30.175Z,100708.84
2022-09-17T22:00:56.835Z,100701.59
2022-09-17T22:03:23.351Z,100694.00
2022-09-17T22:05:49.889Z,100697.34
2022-09-17T22:08:16.439Z,100699.38
2022-09-17T22:10:43.099Z,100697.72
2022-09-17T22:13:09.594Z,100705.06
2022-09-17T22:15:36.140Z,100699.38
2022-09-17T22:18:04.341Z,100690.88
2022-09-17T22:20:31.330Z,100686.47
2022-09-17T22:22:57.813Z,100693.00
2022-09-17T22:25:24.368Z,100690.03
2022-09-17T22:28:16.907Z,100695.38
2022-09-17T22:30:37.362Z,100685.69
2022-09-17T22:33:03.948Z,100680.84
2022-09-17T22:35:30.467Z,100678.47
2022-09-17T22:37:56.933Z,100683.06
2022-09-17T22:40:23.581Z,100682.38
2022-09-17T22:42:50.127Z,100686.28
2022-09-17T22:45:16.782Z,100697.88
2022-09-17T22:47:43.290Z,100683.91
2022-09-17T22:50:10.066Z,100682.94
2022-09-17T22:52:36.561Z,100686.16
2022-09-17T22:55:03.291Z,100678.31
2022-09-17T22:57:29.836Z,100677.13
2022-09-17T22:59:56.349Z,100671.53
2022-09-17T23:02:22.937Z,100671.44
2022-09-17T23:04:50.406Z,100682.56
2022-09-17T23:07:16.890Z,100676.16
2022-09-17T23:09:43.516Z,100672.13
2022-09-17T23:12:10.017Z,100669.41
2022-09-17T23:14:36.519Z,100676.63
2022-09-17T23:17:03.020Z,100669.06
2022-09-17T23:19:29.566Z,100670.84
2022-09-17T23:21:56.105Z,100668.69
2022-09-17T23:24:22.892Z,100667.28
2022-09-17T23:26:50.306Z,100660.78
2022-09-17T23:29:17.834Z,100659.25
2022-09-17T23:31:44.372Z,100668.84
2022-09-17T23:34:11.390Z,100663.38
2022-09-17T23:36:39.873Z,100663.38
2022-09-17T23:39:09.131Z,100666.50
2022-09-17T23:41:38.301Z,100657.34
2022-09-17T23:44:12.158Z,100652.03
2022-09-17T23:46:41.440Z,100660.22
2022-09-17T23:49:08.057Z,100658.19
2022-09-17T23:51:36.278Z,100654.28
2022-09-17T23:54:05.329Z,100655.22
2022-09-17T23:56:31.839Z,100655.00
2022-09-17T23:59:00.777Z,100665.19
